Amidon, North Dakota
Current Conditions -  °F | °C
As of 5:15 PM on Tuesday 25 Nov 2014 (Local Time) from KDIK Reporting Station
Overcast Overcast  
Wind Chill: 21°   Ceiling: 1400
Heat Index: 33°   Visibility: 9mi
Dew Point: 28°   Wind: 23mph
Humidity: 82%   Direction: 310°NW
Pressure: 29.77"   Gusts: 32mph
Location:  46.48°N, 103.32°W
Report Text: KDIK 260015Z AUTO 31020G28KT 9SM OVC014 01/M02 A2977 RMK AO2 PK WND 31028/0010 T00061022
Loading
Personal Weather Stations






























Interactive Weather Map New forecast layout! Learn more

10-Day Weather Forecast

Advertisements
Track Severe Weather on mobile